Time,TemperatureF,DewpointF,PressureIn,WindDirection,WindDirectionDegrees,WindSpeedMPH,WindSpeedGustMPH,Humidity,HourlyPrecipIn,Conditions,Clouds,dailyrainin,SoftwareType,DateUTC
2013-02-02 00:00:00,21.9,6.6,28.14,ESE,112,0.0,0.0,51,0.00,,---,0.00,VWS V14.01,2013-02-02 05:00:00,
2013-02-02 00:01:00,22.1,6.8,28.14,ESE,112,0.0,0.0,51,0.00,,---,0.00,VWS V14.01,2013-02-02 05:01:00,
2013-02-02 00:06:00,21.9,6.6,28.14,ESE,112,0.0,0.0,51,0.00,,---,0.00,VWS V14.01,2013-02-02 05:06:00,
2013-02-02 00:11:00,22.1,7.2,28.14,ESE,112,0.0,0.0,52,0.00,,---,0.00,VWS V14.01,2013-02-02 05:11:00,
2013-02-02 00:16:00,22.1,6.8,28.14,ESE,112,0.0,0.0,51,0.00,,---,0.00,VWS V14.01,2013-02-02 05:16:00,
2013-02-02 00:21:00,21.9,7.0,28.14,ESE,112,0.0,0.0,52,0.00,,---,0.00,VWS V14.01,2013-02-02 05:21:00,
2013-02-02 00:26:00,21.9,7.0,28.14,ESE,112,0.0,0.0,52,0.00,,---,0.00,VWS V14.01,2013-02-02 05:26:00,
2013-02-02 00:31:00,21.9,7.0,28.14,ESE,112,0.0,0.0,52,0.00,,---,0.00,VWS V14.01,2013-02-02 05:31:00,
2013-02-02 00:36:00,21.9,7.0,28.14,SSE,158,0.0,0.0,52,0.00,,---,0.00,VWS V14.01,2013-02-02 05:36:00,
2013-02-02 00:41:00,21.7,6.8,28.14,ESE,112,0.0,0.0,52,0.00,,---,0.00,VWS V14.01,2013-02-02 05:41:00,
2013-02-02 00:47:00,21.7,7.3,28.14,ESE,112,0.0,0.0,53,0.00,,---,0.00,VWS V14.01,2013-02-02 05:47:00,
2013-02-02 00:52:00,21.7,6.8,28.14,ESE,112,0.0,0.0,52,0.00,,---,0.00,VWS V14.01,2013-02-02 05:52:00,
2013-02-02 00:57:00,21.6,6.7,28.14,ESE,112,0.0,0.0,52,0.00,,---,0.00,VWS V14.01,2013-02-02 05:57:00,
2013-02-02 01:02:00,21.6,6.7,28.14,ESE,112,0.0,0.0,52,0.00,,---,0.00,VWS V14.01,2013-02-02 06:02:00,
2013-02-02 01:07:00,21.6,7.1,28.14,East,90,0.0,0.0,53,0.00,,---,0.00,VWS V14.01,2013-02-02 06:07:00,
2013-02-02 01:12:00,21.6,6.7,28.14,West,270,0.0,0.0,52,0.00,,---,0.00,VWS V14.01,2013-02-02 06:12:00,
2013-02-02 01:17:00,21.6,6.7,28.11,ESE,112,0.0,0.0,52,0.00,,---,0.00,VWS V14.01,2013-02-02 06:17:00,
2013-02-02 01:22:00,21.6,6.7,28.11,SE,135,0.0,0.0,52,0.00,,---,0.00,VWS V14.01,2013-02-02 06:22:00,
2013-02-02 01:27:00,21.6,7.1,28.11,ESE,112,0.0,0.0,53,0.00,,---,0.00,VWS V14.01,2013-02-02 06:27:00,
2013-02-02 01:32:00,21.4,6.9,28.11,ESE,112,0.0,0.0,53,0.00,,---,0.00,VWS V14.01,2013-02-02 06:32:00,
2013-02-02 01:37:00,21.4,6.9,28.11,ESE,112,0.0,0.0,53,0.00,,---,0.00,VWS V14.01,2013-02-02 06:37:00,
2013-02-02 01:42:00,21.4,6.9,28.11,East,90,0.0,1.3,53,0.00,,---,0.00,VWS V14.01,2013-02-02 06:42:00,
2013-02-02 01:47:00,21.4,7.3,28.11,East,90,0.0,0.0,54,0.00,,---,0.00,VWS V14.01,2013-02-02 06:47:00,
2013-02-02 01:52:00,21.4,7.3,28.11,ESE,112,0.0,0.0,54,0.00,,---,0.00,VWS V14.01,2013-02-02 06:52:00,
2013-02-02 01:57:00,21.4,7.3,28.11,SE,135,0.0,0.0,54,0.00,,---,0.00,VWS V14.01,2013-02-02 06:57:00,
2013-02-02 02:02:00,21.6,7.5,28.14,North,0,0.0,0.0,54,0.00,,---,0.00,VWS V14.01,2013-02-02 07:02:00,
2013-02-02 02:07:00,21.7,7.7,28.14,East,90,0.0,0.0,54,0.00,,---,0.00,VWS V14.01,2013-02-02 07:07:00,
2013-02-02 02:12:00,21.7,7.7,28.14,East,90,0.0,0.0,54,0.00,,---,0.00,VWS V14.01,2013-02-02 07:12:00,
2013-02-02 02:17:00,21.7,7.7,28.11,East,90,0.0,0.0,54,0.00,,---,0.00,VWS V14.01,2013-02-02 07:17:00,
2013-02-02 02:23:00,21.7,8.1,28.11,East,90,0.0,0.0,55,0.00,,---,0.00,VWS V14.01,2013-02-02 07:23:00,
2013-02-02 02:28:00,21.6,7.9,28.11,East,90,0.0,0.0,55,0.00,,---,0.00,VWS V14.01,2013-02-02 07:28:00,
2013-02-02 02:33:00,21.4,7.7,28.11,East,90,0.0,0.0,55,0.00,,---,0.00,VWS V14.01,2013-02-02 07:33:00,
2013-02-02 02:38:00,21.4,7.7,28.11,East,90,0.0,0.0,55,0.00,,---,0.00,VWS V14.01,2013-02-02 07:38:00,
2013-02-02 02:43:00,21.2,8.0,28.11,East,90,0.0,0.0,56,0.00,,---,0.00,VWS V14.01,2013-02-02 07:43:00,
2013-02-02 02:48:00,21.2,8.0,28.11,East,90,0.0,0.0,56,0.00,,---,0.00,VWS V14.01,2013-02-02 07:48:00,
2013-02-02 02:53:00,21.0,7.8,28.11,East,90,0.0,0.0,56,0.00,,---,0.00,VWS V14.01,2013-02-02 07:53:00,
2013-02-02 02:58:00,20.8,7.6,28.11,East,90,0.0,0.0,56,0.00,,---,0.00,VWS V14.01,2013-02-02 07:58:00,
2013-02-02 03:06:00,20.8,7.6,28.11,East,90,0.0,0.0,56,0.00,,---,0.00,VWS V14.01,2013-02-02 08:06:00,
2013-02-02 03:11:00,20.7,7.5,28.11,East,90,0.0,0.0,56,0.00,,---,0.00,VWS V14.01,2013-02-02 08:11:00,
2013-02-02 03:16:00,20.7,7.5,28.11,East,90,0.0,0.0,56,0.00,,---,0.00,VWS V14.01,2013-02-02 08:16:00,
2013-02-02 03:21:00,20.7,7.8,28.11,East,90,0.0,0.0,57,0.00,,---,0.00,VWS V14.01,2013-02-02 08:21:00,
2013-02-02 03:26:00,20.5,7.7,28.11,East,90,0.0,0.0,57,0.00,,---,0.00,VWS V14.01,2013-02-02 08:26:00,
2013-02-02 03:31:00,20.5,7.7,28.11,East,90,0.0,0.0,57,0.00,,---,0.00,VWS V14.01,2013-02-02 08:31:00,
2013-02-02 03:36:00,20.5,8.1,28.11,East,90,0.0,0.0,58,0.00,,---,0.00,VWS V14.01,2013-02-02 08:36:00,
2013-02-02 03:41:00,20.5,8.1,28.11,East,90,0.0,0.0,58,0.00,,---,0.00,VWS V14.01,2013-02-02 08:41:00,
2013-02-02 03:46:00,20.5,8.1,28.11,East,90,0.0,0.0,58,0.00,,---,0.00,VWS V14.01,2013-02-02 08:46:00,
2013-02-02 03:51:00,20.5,8.1,28.11,East,90,0.0,0.0,58,0.00,,---,0.00,VWS V14.01,2013-02-02 08:51:00,
2013-02-02 03:56:00,20.5,8.1,28.11,East,90,0.0,0.0,58,0.00,,---,0.00,VWS V14.01,2013-02-02 08:56:00,
2013-02-02 04:01:00,20.7,8.2,28.11,East,90,0.0,0.0,58,0.00,,---,0.00,VWS V14.01,2013-02-02 09:01:00,
2013-02-02 04:06:00,20.7,8.2,28.11,East,90,0.0,0.0,58,0.00,,---,0.00,VWS V14.01,2013-02-02 09:06:00,
2013-02-02 04:12:00,20.8,8.0,28.11,East,90,0.0,0.0,57,0.00,,---,0.00,VWS V14.01,2013-02-02 09:12:00,
2013-02-02 04:17:00,21.0,8.2,28.11,East,90,0.0,0.0,57,0.00,,---,0.00,VWS V14.01,2013-02-02 09:17:00,
2013-02-02 04:22:00,21.0,8.2,28.11,East,90,0.0,0.0,57,0.00,,---,0.00,VWS V14.01,2013-02-02 09:22:00,
2013-02-02 04:27:00,21.2,8.4,28.11,East,90,0.0,0.0,57,0.00,,---,0.00,VWS V14.01,2013-02-02 09:27:00,
2013-02-02 04:32:00,21.2,8.4,28.11,ESE,112,0.0,0.0,57,0.00,,---,0.00,VWS V14.01,2013-02-02 09:32:00,
2013-02-02 04:37:00,21.2,8.4,28.11,ESE,112,0.0,0.0,57,0.00,,---,0.00,VWS V14.01,2013-02-02 09:37:00,
2013-02-02 04:42:00,21.2,8.4,28.11,ESE,112,0.0,0.0,57,0.00,,---,0.00,VWS V14.01,2013-02-02 09:42:00,
2013-02-02 04:47:00,21.2,8.4,28.08,SE,135,0.0,0.0,57,0.00,,---,0.00,VWS V14.01,2013-02-02 09:47:00,
2013-02-02 04:52:00,21.4,8.1,28.08,SE,135,0.9,0.9,56,0.00,,---,0.00,VWS V14.01,2013-02-02 09:52:00,
2013-02-02 04:57:00,21.4,8.1,28.08,ESE,112,0.0,0.0,56,0.00,,---,0.00,VWS V14.01,2013-02-02 09:57:00,
2013-02-02 05:02:00,21.4,8.1,28.08,ESE,112,0.0,0.0,56,0.00,,---,0.00,VWS V14.01,2013-02-02 10:02:00,
2013-02-02 05:08:00,21.6,8.3,28.08,East,90,0.0,0.0,56,0.00,,---,0.00,VWS V14.01,2013-02-02 10:08:00,
2013-02-02 05:13:00,21.6,7.9,28.08,ESE,112,0.0,0.0,55,0.00,,---,0.00,VWS V14.01,2013-02-02 10:13:00,
2013-02-02 05:18:00,21.6,7.9,28.08,SE,135,0.0,1.3,55,0.00,,---,0.00,VWS V14.01,2013-02-02 10:18:00,
2013-02-02 05:23:00,21.6,7.9,28.08,ESE,112,0.0,0.0,55,0.00,,---,0.00,VWS V14.01,2013-02-02 10:23:00,
2013-02-02 05:28:00,21.6,7.9,28.08,ESE,112,0.0,0.0,55,0.00,,---,0.00,VWS V14.01,2013-02-02 10:28:00,
2013-02-02 05:33:00,21.6,7.9,28.08,ESE,112,0.0,0.0,55,0.00,,---,0.00,VWS V14.01,2013-02-02 10:33:00,
2013-02-02 05:38:00,21.6,7.9,28.08,ESE,112,0.0,0.0,55,0.00,,---,0.00,VWS V14.01,2013-02-02 10:38:00,
2013-02-02 05:43:00,21.7,8.1,28.08,ESE,112,0.0,0.0,55,0.00,,---,0.00,VWS V14.01,2013-02-02 10:43:00,
2013-02-02 05:48:00,21.7,8.1,28.11,ESE,112,0.0,0.0,55,0.00,,---,0.00,VWS V14.01,2013-02-02 10:48:00,
2013-02-02 05:53:00,21.7,7.7,28.11,SE,135,0.0,0.0,54,0.00,,---,0.00,VWS V14.01,2013-02-02 10:53:00,
2013-02-02 05:58:00,21.9,7.8,28.11,SSE,158,0.0,0.0,54,0.00,,---,0.00,VWS V14.01,2013-02-02 10:58:00,
2013-02-02 06:03:00,21.9,7.8,28.08,SE,135,0.0,0.0,54,0.00,,---,0.00,VWS V14.01,2013-02-02 11:03:00,
2013-02-02 06:08:00,22.1,8.0,28.08,SSE,158,0.0,0.0,54,0.00,,---,0.00,VWS V14.01,2013-02-02 11:08:00,
2013-02-02 06:14:00,22.3,8.2,28.08,SE,135,1.1,1.1,54,0.00,,---,0.00,VWS V14.01,2013-02-02 11:14:00,
2013-02-02 06:19:00,22.5,8.3,28.08,ESE,112,1.6,1.6,54,0.00,,---,0.00,VWS V14.01,2013-02-02 11:19:00,
2013-02-02 06:24:00,22.5,8.3,28.08,SSE,158,0.0,0.0,54,0.00,,---,0.00,VWS V14.01,2013-02-02 11:24:00,
2013-02-02 06:29:00,22.5,7.9,28.08,SE,135,0.0,0.0,53,0.00,,---,0.00,VWS V14.01,2013-02-02 11:29:00,
2013-02-02 06:34:00,22.6,8.1,28.08,SSE,158,0.0,0.9,53,0.00,,---,0.00,VWS V14.01,2013-02-02 11:34:00,
2013-02-02 06:39:00,22.8,8.3,28.08,East,90,0.9,0.9,53,0.00,,---,0.00,VWS V14.01,2013-02-02 11:39:00,
2013-02-02 06:44:00,23.0,8.4,28.08,SSE,158,0.9,0.9,53,0.00,,---,0.00,VWS V14.01,2013-02-02 11:44:00,
2013-02-02 06:49:00,23.2,8.2,28.08,SE,135,0.0,0.0,52,0.00,,---,0.00,VWS V14.01,2013-02-02 11:49:00,
2013-02-02 06:54:00,23.4,8.4,28.08,ESE,112,0.9,0.9,52,0.00,,---,0.00,VWS V14.01,2013-02-02 11:54:00,
2013-02-02 06:59:00,23.5,8.5,28.08,ESE,112,0.0,0.0,52,0.00,,---,0.00,VWS V14.01,2013-02-02 11:59:00,
2013-02-02 07:04:00,23.7,8.7,28.08,SSW,202,0.0,0.0,52,0.00,,---,0.00,VWS V14.01,2013-02-02 12:04:00,
2013-02-02 07:09:00,23.9,8.9,28.08,East,90,0.0,0.0,52,0.00,,---,0.00,VWS V14.01,2013-02-02 12:09:00,
2013-02-02 07:14:00,23.9,8.9,28.08,East,90,0.0,0.0,52,0.00,,---,0.00,VWS V14.01,2013-02-02 12:14:00,
2013-02-02 07:19:00,24.1,9.0,28.08,SSE,158,0.0,0.0,52,0.00,,---,0.00,VWS V14.01,2013-02-02 12:19:00,
2013-02-02 07:25:00,24.1,9.0,28.08,SE,135,0.9,1.3,52,0.00,,---,0.00,VWS V14.01,2013-02-02 12:25:00,
2013-02-02 07:30:00,24.1,8.6,28.08,SSW,202,0.0,0.0,51,0.00,,---,0.00,VWS V14.01,2013-02-02 12:30:00,
2013-02-02 07:35:00,24.3,8.8,28.08,ESE,112,0.9,0.9,51,0.00,,---,0.00,VWS V14.01,2013-02-02 12:35:00,
2013-02-02 07:40:00,24.4,8.9,28.08,SE,135,3.1,3.1,51,0.00,,---,0.00,VWS V14.01,2013-02-02 12:40:00,
2013-02-02 07:45:00,24.4,8.5,28.08,East,90,1.6,1.6,50,0.00,,---,0.00,VWS V14.01,2013-02-02 12:45:00,
2013-02-02 07:50:00,24.4,8.5,28.08,WSW,248,0.0,0.0,50,0.00,,---,0.00,VWS V14.01,2013-02-02 12:50:00,
2013-02-02 07:55:00,24.4,8.5,28.08,SE,135,0.9,1.3,50,0.00,,---,0.00,VWS V14.01,2013-02-02 12:55:00,
2013-02-02 08:00:00,24.6,8.6,28.08,ESE,112,0.0,0.0,50,0.00,,---,0.00,VWS V14.01,2013-02-02 13:00:00,
2013-02-02 08:05:00,24.8,8.4,28.08,South,180,1.3,1.3,49,0.00,,---,0.00,VWS V14.01,2013-02-02 13:05:00,
2013-02-02 08:10:00,25.0,8.1,28.08,SE,135,1.6,2.9,48,0.00,,---,0.00,VWS V14.01,2013-02-02 13:10:00,
2013-02-02 08:15:00,25.2,8.2,28.08,ESE,112,0.0,0.0,48,0.00,,---,0.00,VWS V14.01,2013-02-02 13:15:00,
2013-02-02 08:20:00,25.3,8.4,28.08,SE,135,0.9,0.9,48,0.00,,---,0.00,VWS V14.01,2013-02-02 13:20:00,
2013-02-02 08:25:00,25.5,8.6,28.08,ESE,112,1.1,2.0,48,0.00,,---,0.00,VWS V14.01,2013-02-02 13:25:00,
2013-02-02 08:30:00,25.9,8.9,28.08,SE,135,2.0,2.2,48,0.00,,---,0.00,VWS V14.01,2013-02-02 13:30:00,
2013-02-02 08:36:00,26.1,9.1,28.08,ESE,112,0.9,1.1,48,0.00,,---,0.00,VWS V14.01,2013-02-02 13:36:00,
2013-02-02 08:41:00,26.2,8.8,28.08,SSE,158,0.0,1.3,47,0.00,,---,0.00,VWS V14.01,2013-02-02 13:41:00,
2013-02-02 08:46:00,26.6,9.1,28.08,SSE,158,0.0,1.6,47,0.00,,---,0.00,VWS V14.01,2013-02-02 13:46:00,
2013-02-02 08:51:00,27.0,9.9,28.11,East,90,0.0,0.0,48,0.00,,---,0.00,VWS V14.01,2013-02-02 13:51:00,
2013-02-02 08:56:00,27.1,10.5,28.11,ENE,68,0.0,0.0,49,0.00,,---,0.00,VWS V14.01,2013-02-02 13:56:00,
2013-02-02 09:01:00,27.5,10.4,28.11,SW,225,0.0,0.0,48,0.00,,---,0.00,VWS V14.01,2013-02-02 14:01:00,
2013-02-02 09:06:00,27.7,10.6,28.11,East,90,1.3,1.3,48,0.00,,---,0.00,VWS V14.01,2013-02-02 14:06:00,
2013-02-02 09:11:00,27.7,10.6,28.11,SE,135,0.0,0.0,48,0.00,,---,0.00,VWS V14.01,2013-02-02 14:11:00,
2013-02-02 09:16:00,27.5,10.4,28.11,ESE,112,0.9,0.9,48,0.00,,---,0.00,VWS V14.01,2013-02-02 14:16:00,
2013-02-02 09:21:00,27.3,10.2,28.11,SE,135,0.0,1.6,48,0.00,,---,0.00,VWS V14.01,2013-02-02 14:21:00,
2013-02-02 09:26:00,27.3,10.2,28.11,East,90,1.6,1.6,48,0.00,,---,0.00,VWS V14.01,2013-02-02 14:26:00,
2013-02-02 09:31:00,27.5,10.9,28.11,WSW,248,0.0,0.0,49,0.00,,---,0.00,VWS V14.01,2013-02-02 14:31:00,
2013-02-02 09:36:00,27.7,11.0,28.14,East,90,0.0,0.0,49,0.00,,---,0.00,VWS V14.01,2013-02-02 14:36:00,
2013-02-02 09:41:00,27.7,11.0,28.14,NNE,22,0.0,1.1,49,0.00,,---,0.00,VWS V14.01,2013-02-02 14:41:00,
2013-02-02 09:46:00,27.7,11.0,28.14,SSE,158,0.0,0.0,49,0.00,,---,0.00,VWS V14.01,2013-02-02 14:46:00,
2013-02-02 09:51:00,28.2,12.0,28.14,ESE,112,0.0,0.0,50,0.00,,---,0.00,VWS V14.01,2013-02-02 14:51:00,
2013-02-02 09:56:00,28.2,11.5,28.14,WSW,248,1.1,1.1,49,0.00,,---,0.00,VWS V14.01,2013-02-02 14:56:00,
2013-02-02 10:01:00,28.0,10.9,28.14,WNW,292,2.0,2.0,48,0.00,,---,0.00,VWS V14.01,2013-02-02 15:01:00,
2013-02-02 10:06:00,28.0,10.9,28.17,West,270,0.0,0.0,48,0.00,,---,0.00,VWS V14.01,2013-02-02 15:06:00,
2013-02-02 10:11:00,28.0,10.9,28.17,SSW,202,0.0,0.0,48,0.00,,---,0.00,VWS V14.01,2013-02-02 15:11:00,
2013-02-02 10:16:00,27.9,11.2,28.17,West,270,3.1,4.3,49,0.00,,---,0.00,VWS V14.01,2013-02-02 15:16:00,
2013-02-02 10:21:00,27.0,11.7,28.14,SSW,202,0.0,0.0,52,0.00,,---,0.00,VWS V14.01,2013-02-02 15:21:00,
2013-02-02 10:26:00,26.1,12.5,28.14,WSW,248,1.3,1.6,56,0.00,,---,0.00,VWS V14.01,2013-02-02 15:26:00,
2013-02-02 10:31:00,25.7,13.0,28.11,SSW,202,0.0,0.0,58,0.00,,---,0.00,VWS V14.01,2013-02-02 15:31:00,
2013-02-02 10:36:00,25.3,14.5,28.11,ESE,112,0.0,1.6,63,0.00,,---,0.00,VWS V14.01,2013-02-02 15:36:00,
2013-02-02 10:41:00,25.3,16.6,28.11,ENE,68,0.9,1.3,69,0.00,,---,0.00,VWS V14.01,2013-02-02 15:41:00,
2013-02-02 10:46:00,25.3,17.6,28.11,SE,135,0.0,0.0,72,0.00,,---,0.00,VWS V14.01,2013-02-02 15:46:00,
2013-02-02 10:51:00,25.7,17.9,28.11,West,270,2.5,2.9,72,0.00,,---,0.00,VWS V14.01,2013-02-02 15:51:00,
2013-02-02 10:57:00,25.9,18.8,28.11,SSE,158,0.0,0.0,74,0.00,,---,0.00,VWS V14.01,2013-02-02 15:57:00,
2013-02-02 11:02:00,25.7,19.2,28.11,East,90,0.0,1.3,76,0.00,,---,0.00,VWS V14.01,2013-02-02 16:02:00,
2013-02-02 11:07:00,26.1,19.5,28.11,SSE,158,1.1,2.0,76,0.00,,---,0.00,VWS V14.01,2013-02-02 16:07:00,
2013-02-02 11:12:00,26.4,20.2,28.11,SSE,158,0.9,1.1,77,0.00,,---,0.00,VWS V14.01,2013-02-02 16:12:00,
2013-02-02 11:17:00,27.3,21.1,28.08,ESE,112,0.9,0.9,77,0.00,,---,0.00,VWS V14.01,2013-02-02 16:17:00,
2013-02-02 11:22:00,27.5,21.5,28.08,SSW,202,1.1,1.1,78,0.00,,---,0.00,VWS V14.01,2013-02-02 16:22:00,
2013-02-02 11:27:00,27.7,21.4,28.08,SSW,202,3.1,3.1,77,0.00,,---,0.00,VWS V14.01,2013-02-02 16:27:00,
2013-02-02 11:32:00,27.3,21.4,28.08,SSW,202,2.2,2.2,78,0.00,,---,0.00,VWS V14.01,2013-02-02 16:32:00,
2013-02-02 11:37:00,27.3,21.1,28.08,SSW,202,0.0,2.9,77,0.00,,---,0.00,VWS V14.01,2013-02-02 16:37:00,
2013-02-02 11:42:00,28.2,22.0,28.08,SSW,202,1.1,2.0,77,0.00,,---,0.00,VWS V14.01,2013-02-02 16:42:00,
2013-02-02 11:47:00,28.6,22.0,28.08,SSW,202,0.0,2.0,76,0.00,,---,0.00,VWS V14.01,2013-02-02 16:47:00,
2013-02-02 11:52:00,30.0,23.4,28.08,WSW,248,0.0,0.0,76,0.00,,---,0.00,VWS V14.01,2013-02-02 16:52:00,
2013-02-02 11:57:00,30.4,23.1,28.08,ESE,112,0.0,1.6,74,0.00,,---,0.00,VWS V14.01,2013-02-02 16:57:00,
2013-02-02 12:02:00,30.7,23.1,28.05,SSW,202,0.0,0.0,73,0.00,,---,0.00,VWS V14.01,2013-02-02 17:02:00,
2013-02-02 12:07:00,31.1,23.5,28.05,ENE,68,1.1,1.6,73,0.00,,---,0.00,VWS V14.01,2013-02-02 17:07:00,
2013-02-02 12:12:00,32.2,24.2,28.05,South,180,0.0,0.0,72,0.00,,---,0.00,VWS V14.01,2013-02-02 17:12:00,
2013-02-02 12:17:00,32.5,24.2,28.05,SW,225,1.3,2.9,71,0.00,,---,0.00,VWS V14.01,2013-02-02 17:17:00,
2013-02-02 12:22:00,32.7,24.0,28.05,ESE,112,2.0,2.0,70,0.00,,---,0.00,VWS V14.01,2013-02-02 17:22:00,
2013-02-02 12:28:00,33.3,24.5,28.05,West,270,0.0,0.0,70,0.00,,---,0.00,VWS V14.01,2013-02-02 17:28:00,
2013-02-02 12:33:00,33.4,24.4,28.02,SSW,202,1.1,1.1,69,0.00,,---,0.00,VWS V14.01,2013-02-02 17:33:00,
2013-02-02 12:38:00,34.0,24.9,28.02,SSW,202,2.0,2.0,69,0.00,,---,0.00,VWS V14.01,2013-02-02 17:38:00,
2013-02-02 12:43:00,34.0,24.5,28.02,South,180,0.9,2.9,68,0.00,,---,0.00,VWS V14.01,2013-02-02 17:43:00,
2013-02-02 12:48:00,33.6,24.2,28.02,WNW,292,1.3,1.3,68,0.00,,---,0.00,VWS V14.01,2013-02-02 17:48:00,
2013-02-02 12:53:00,33.6,24.5,28.02,SSW,202,1.1,2.2,69,0.00,,---,0.00,VWS V14.01,2013-02-02 17:53:00,
2013-02-02 12:58:00,33.6,24.2,28.02,West,270,0.0,2.5,68,0.00,,---,0.00,VWS V14.01,2013-02-02 17:58:00,
2013-02-02 13:03:00,33.8,24.4,28.02,WSW,248,2.2,2.2,68,0.00,,---,0.00,VWS V14.01,2013-02-02 18:03:00,
2013-02-02 13:08:00,33.8,24.4,28.02,SW,225,0.0,2.0,68,0.00,,---,0.00,VWS V14.01,2013-02-02 18:08:00,
2013-02-02 13:13:00,34.3,24.5,28.02,SSW,202,0.0,1.3,67,0.00,,---,0.00,VWS V14.01,2013-02-02 18:13:00,
2013-02-02 13:18:00,34.3,24.5,27.99,SSW,202,0.9,2.7,67,0.00,,---,0.00,VWS V14.01,2013-02-02 18:18:00,
2013-02-02 13:23:00,33.8,23.7,27.99,West,270,1.1,2.5,66,0.00,,---,0.00,VWS V14.01,2013-02-02 18:23:00,
2013-02-02 13:28:00,34.0,24.2,27.99,SW,225,1.6,2.0,67,0.00,,---,0.00,VWS V14.01,2013-02-02 18:28:00,
2013-02-02 13:33:00,34.0,24.2,27.99,SSW,202,1.1,1.1,67,0.00,,---,0.00,VWS V14.01,2013-02-02 18:33:00,
2013-02-02 13:38:00,33.1,23.3,27.99,ESE,112,0.0,0.0,67,0.00,,---,0.00,VWS V14.01,2013-02-02 18:38:00,
2013-02-02 13:43:00,32.7,23.7,27.99,South,180,1.3,1.3,69,0.00,,---,0.00,VWS V14.01,2013-02-02 18:43:00,
2013-02-02 13:48:00,32.5,23.5,27.99,SSW,202,2.5,2.5,69,0.00,,---,0.00,VWS V14.01,2013-02-02 18:48:00,
2013-02-02 13:54:00,33.3,24.5,27.99,SSW,202,0.0,2.5,70,0.00,,---,0.00,VWS V14.01,2013-02-02 18:54:00,
2013-02-02 13:59:00,34.0,24.9,27.99,WSW,248,0.0,1.3,69,0.00,,---,0.00,VWS V14.01,2013-02-02 18:59:00,
2013-02-02 14:04:00,33.8,24.7,27.99,SSW,202,2.0,2.0,69,0.00,,---,0.00,VWS V14.01,2013-02-02 19:04:00,
2013-02-02 14:09:00,33.3,24.2,27.96,SSW,202,1.3,1.3,69,0.00,,---,0.00,VWS V14.01,2013-02-02 19:09:00,
2013-02-02 14:14:00,32.7,24.0,27.96,SSW,202,0.0,0.9,70,0.00,,---,0.00,VWS V14.01,2013-02-02 19:14:00,
2013-02-02 14:19:00,33.1,24.7,27.96,SW,225,0.0,0.9,71,0.00,,---,0.00,VWS V14.01,2013-02-02 19:19:00,
2013-02-02 14:24:00,33.1,24.7,27.96,WSW,248,0.0,1.1,71,0.00,,---,0.00,VWS V14.01,2013-02-02 19:24:00,
2013-02-02 14:29:00,33.1,24.7,27.96,SSE,158,3.4,3.4,71,0.00,,---,0.00,VWS V14.01,2013-02-02 19:29:00,
2013-02-02 14:34:00,32.7,24.7,27.96,WSW,248,0.0,2.2,72,0.00,,---,0.00,VWS V14.01,2013-02-02 19:34:00,
2013-02-02 14:39:00,33.1,25.0,27.96,SSE,158,2.5,2.5,72,0.00,,---,0.00,VWS V14.01,2013-02-02 19:39:00,
2013-02-02 14:44:00,33.1,25.0,27.96,SW,225,2.2,2.2,72,0.00,,---,0.00,VWS V14.01,2013-02-02 19:44:00,
2013-02-02 14:49:00,33.1,25.0,27.96,East,90,0.0,0.0,72,0.00,,---,0.00,VWS V14.01,2013-02-02 19:49:00,
2013-02-02 14:54:00,33.4,25.4,27.96,WSW,248,1.1,1.6,72,0.00,,---,0.00,VWS V14.01,2013-02-02 19:54:00,
2013-02-02 14:59:00,33.6,25.6,27.96,SSE,158,0.0,0.0,72,0.00,,---,0.00,VWS V14.01,2013-02-02 19:59:00,
2013-02-02 15:04:00,34.0,25.6,27.93,South,180,1.6,2.0,71,0.00,,---,0.00,VWS V14.01,2013-02-02 20:04:00,
2013-02-02 15:10:00,34.0,25.2,27.93,SSW,202,0.0,0.9,70,0.00,,---,0.00,VWS V14.01,2013-02-02 20:10:00,
2013-02-02 15:15:00,33.8,25.4,27.93,SW,225,0.9,2.0,71,0.00,,---,0.00,VWS V14.01,2013-02-02 20:15:00,
2013-02-02 15:20:00,34.2,25.8,27.96,SW,225,1.6,2.9,71,0.00,,---,0.00,VWS V14.01,2013-02-02 20:20:00,
2013-02-02 15:25:00,34.0,25.2,27.96,SSW,202,0.0,2.9,70,0.00,,---,0.00,VWS V14.01,2013-02-02 20:25:00,
2013-02-02 15:30:00,33.8,25.1,27.96,WSW,248,2.2,2.2,70,0.00,,---,0.00,VWS V14.01,2013-02-02 20:30:00,
2013-02-02 15:35:00,34.0,25.2,27.93,SSE,158,0.0,0.0,70,0.00,,---,0.00,VWS V14.01,2013-02-02 20:35:00,
2013-02-02 15:40:00,34.3,25.6,27.93,WSW,248,3.1,3.1,70,0.00,,---,0.00,VWS V14.01,2013-02-02 20:40:00,
2013-02-02 15:45:00,33.8,24.7,27.93,NNE,22,0.9,2.7,69,0.00,,---,0.00,VWS V14.01,2013-02-02 20:45:00,
2013-02-02 15:50:00,33.6,24.9,27.93,WSW,248,0.0,0.0,70,0.00,,---,0.00,VWS V14.01,2013-02-02 20:50:00,
2013-02-02 15:55:00,33.4,25.1,27.93,WSW,248,0.0,1.3,71,0.00,,---,0.00,VWS V14.01,2013-02-02 20:55:00,
2013-02-02 16:01:00,33.4,25.1,27.93,South,180,5.6,5.6,71,0.00,,---,0.00,VWS V14.01,2013-02-02 21:01:00,
2013-02-02 16:06:00,33.4,25.1,27.93,South,180,1.6,1.6,71,0.00,,---,0.00,VWS V14.01,2013-02-02 21:06:00,
2013-02-02 16:11:00,33.3,25.2,27.93,SSW,202,0.9,2.0,72,0.00,,---,0.00,VWS V14.01,2013-02-02 21:11:00,
2013-02-02 16:16:00,33.6,25.6,27.93,SW,225,0.0,0.0,72,0.00,,---,0.00,VWS V14.01,2013-02-02 21:16:00,
2013-02-02 16:21:00,33.6,25.6,27.93,NNE,22,2.7,2.9,72,0.00,,---,0.00,VWS V14.01,2013-02-02 21:21:00,
2013-02-02 16:26:00,33.6,25.6,27.93,SSW,202,2.7,2.7,72,0.00,,---,0.00,VWS V14.01,2013-02-02 21:26:00,
2013-02-02 16:31:00,33.6,25.6,27.93,SSW,202,0.0,0.0,72,0.00,,---,0.00,VWS V14.01,2013-02-02 21:31:00,
2013-02-02 16:36:00,33.8,25.7,27.93,SSW,202,2.0,2.5,72,0.00,,---,0.00,VWS V14.01,2013-02-02 21:36:00,
2013-02-02 16:41:00,33.8,25.7,27.93,West,270,0.0,0.0,72,0.00,,---,0.00,VWS V14.01,2013-02-02 21:41:00,
2013-02-02 16:46:00,33.8,25.4,27.93,South,180,2.9,2.9,71,0.00,,---,0.00,VWS V14.01,2013-02-02 21:46:00,
2013-02-02 16:51:00,34.0,25.6,27.93,SW,225,2.0,2.0,71,0.00,,---,0.00,VWS V14.01,2013-02-02 21:51:00,
2013-02-02 16:56:00,34.0,25.2,27.93,WNW,292,2.5,2.9,70,0.00,,---,0.00,VWS V14.01,2013-02-02 21:56:00,
2013-02-02 17:01:00,34.0,25.2,27.93,West,270,1.1,2.7,70,0.00,,---,0.00,VWS V14.01,2013-02-02 22:01:00,
2013-02-02 17:07:00,33.8,25.1,27.93,West,270,4.0,4.0,70,0.00,,---,0.00,VWS V14.01,2013-02-02 22:07:00,
2013-02-02 17:12:00,33.6,24.9,27.93,SSW,202,1.6,3.1,70,0.00,,---,0.00,VWS V14.01,2013-02-02 22:12:00,
2013-02-02 17:17:00,33.8,25.1,27.93,SSW,202,1.3,2.7,70,0.00,,---,0.00,VWS V14.01,2013-02-02 22:17:00,
2013-02-02 17:22:00,34.0,25.2,27.93,WNW,292,2.0,2.9,70,0.00,,---,0.00,VWS V14.01,2013-02-02 22:22:00,
2013-02-02 17:27:00,34.0,24.9,27.93,SSW,202,1.1,2.5,69,0.00,,---,0.00,VWS V14.01,2013-02-02 22:27:00,
2013-02-02 17:32:00,33.6,24.5,27.93,WSW,248,3.4,3.8,69,0.00,,---,0.00,VWS V14.01,2013-02-02 22:32:00,
2013-02-02 17:37:00,33.3,24.5,27.93,WNW,292,4.3,4.3,70,0.00,,---,0.00,VWS V14.01,2013-02-02 22:37:00,
2013-02-02 17:42:00,33.1,24.7,27.93,South,180,2.0,2.0,71,0.00,,---,0.00,VWS V14.01,2013-02-02 22:42:00,
2013-02-02 17:47:00,32.7,25.4,27.90,SE,135,1.3,1.3,74,0.00,,---,0.00,VWS V14.01,2013-02-02 22:47:00,
2013-02-02 17:52:00,32.5,25.8,27.90,WNW,292,2.5,2.7,76,0.00,,---,0.00,VWS V14.01,2013-02-02 22:52:00,
2013-02-02 17:57:00,32.5,26.1,27.90,ENE,68,0.0,0.0,77,0.00,,---,0.00,VWS V14.01,2013-02-02 22:57:00,
2013-02-02 18:02:00,32.2,26.1,27.90,NNW,338,0.0,0.0,78,0.00,,---,0.00,VWS V14.01,2013-02-02 23:02:00,
2013-02-02 18:07:00,32.0,26.2,27.90,SSW,202,0.9,0.9,79,0.00,,---,0.00,VWS V14.01,2013-02-02 23:07:00,
2013-02-02 18:12:00,31.8,26.7,27.90,SSW,202,4.0,4.0,81,0.00,,---,0.00,VWS V14.01,2013-02-02 23:12:00,
2013-02-02 18:17:00,31.6,27.1,27.93,WSW,248,2.7,2.7,83,0.00,,---,0.00,VWS V14.01,2013-02-02 23:17:00,
2013-02-02 18:23:00,31.5,27.5,27.93,SW,225,1.1,1.1,85,0.00,,---,0.00,VWS V14.01,2013-02-02 23:23:00,
2013-02-02 18:28:00,31.6,27.9,27.93,SSW,202,2.7,2.7,86,0.00,,---,0.00,VWS V14.01,2013-02-02 23:28:00,
2013-02-02 18:33:00,31.6,28.2,27.93,WNW,292,2.5,2.5,87,0.00,,---,0.00,VWS V14.01,2013-02-02 23:33:00,
2013-02-02 18:38:00,31.8,28.7,27.93,SSW,202,3.6,3.6,88,0.00,,---,0.00,VWS V14.01,2013-02-02 23:38:00,
2013-02-02 18:43:00,31.8,29.0,27.93,WSW,248,0.0,0.0,89,0.00,,---,0.00,VWS V14.01,2013-02-02 23:43:00,
2013-02-02 18:48:00,31.8,29.2,27.93,WSW,248,2.7,3.8,90,0.00,,---,0.00,VWS V14.01,2013-02-02 23:48:00,
2013-02-02 18:53:00,32.0,29.4,27.93,WSW,248,0.0,2.2,90,0.00,,---,0.00,VWS V14.01,2013-02-02 23:53:00,
2013-02-02 18:58:00,32.2,30.1,27.93,WSW,248,0.0,0.0,92,0.00,,---,0.00,VWS V14.01,2013-02-02 23:58:00,
2013-02-02 19:03:00,32.4,30.3,27.93,WSW,248,0.9,0.9,92,0.00,,---,0.00,VWS V14.01,2013-02-03 00:03:00,
2013-02-02 19:08:00,32.5,30.5,27.93,SW,225,1.6,1.6,92,0.00,,---,0.00,VWS V14.01,2013-02-03 00:08:00,
2013-02-02 19:13:00,32.7,30.9,27.93,WSW,248,2.5,2.5,93,0.00,,---,0.00,VWS V14.01,2013-02-03 00:13:00,
2013-02-02 19:18:00,32.7,30.9,27.93,West,270,1.3,1.3,93,0.00,,---,0.00,VWS V14.01,2013-02-03 00:18:00,
2013-02-02 19:23:00,32.7,30.9,27.93,SSE,158,0.0,0.0,93,0.00,,---,0.00,VWS V14.01,2013-02-03 00:23:00,
2013-02-02 19:28:00,32.7,30.9,27.93,SSE,158,2.0,2.0,93,0.00,,---,0.00,VWS V14.01,2013-02-03 00:28:00,
2013-02-02 19:34:00,32.7,30.9,27.93,SSW,202,0.0,1.1,93,0.00,,---,0.00,VWS V14.01,2013-02-03 00:34:00,
2013-02-02 19:39:00,32.9,31.4,27.93,NNE,22,0.0,3.8,94,0.00,,---,0.00,VWS V14.01,2013-02-03 00:39:00,
2013-02-02 19:44:00,32.9,31.4,27.93,SSW,202,2.7,3.4,94,0.00,,---,0.00,VWS V14.01,2013-02-03 00:44:00,
2013-02-02 19:49:00,33.1,31.5,27.93,WSW,248,0.0,0.0,94,0.00,,---,0.00,VWS V14.01,2013-02-03 00:49:00,
2013-02-02 19:54:00,33.1,31.5,27.93,East,90,1.6,1.6,94,0.00,,---,0.00,VWS V14.01,2013-02-03 00:54:00,
2013-02-02 19:59:00,33.1,31.5,27.93,SSW,202,2.9,3.6,94,0.00,,---,0.00,VWS V14.01,2013-02-03 00:59:00,
2013-02-02 20:04:00,33.1,31.8,27.93,South,180,0.0,0.0,95,0.00,,---,0.00,VWS V14.01,2013-02-03 01:04:00,
2013-02-02 20:09:00,33.1,31.5,27.93,WNW,292,0.0,0.0,94,0.00,,---,0.00,VWS V14.01,2013-02-03 01:09:00,
2013-02-02 20:14:00,33.1,31.5,27.93,WSW,248,0.9,3.8,94,0.00,,---,0.00,VWS V14.01,2013-02-03 01:14:00,
2013-02-02 20:19:00,33.1,31.5,27.93,SW,225,2.0,2.9,94,0.00,,---,0.00,VWS V14.01,2013-02-03 01:19:00,
2013-02-02 20:25:00,33.1,31.5,27.93,South,180,0.0,0.9,94,0.00,,---,0.00,VWS V14.01,2013-02-03 01:25:00,
2013-02-02 20:30:00,33.1,31.5,27.93,SW,225,0.0,0.0,94,0.00,,---,0.00,VWS V14.01,2013-02-03 01:30:00,
2013-02-02 20:35:00,32.9,31.4,27.93,South,180,1.1,1.1,94,0.00,,---,0.00,VWS V14.01,2013-02-03 01:35:00,
2013-02-02 20:40:00,32.9,31.4,27.93,WSW,248,0.0,1.1,94,0.00,,---,0.00,VWS V14.01,2013-02-03 01:40:00,
2013-02-02 20:45:00,32.9,31.4,27.93,East,90,2.5,2.5,94,0.00,,---,0.00,VWS V14.01,2013-02-03 01:45:00,
2013-02-02 20:50:00,32.7,31.2,27.96,West,270,3.1,3.1,94,0.00,,---,0.00,VWS V14.01,2013-02-03 01:50:00,
2013-02-02 20:55:00,32.7,31.2,27.96,ENE,68,2.5,2.5,94,0.00,,---,0.00,VWS V14.01,2013-02-03 01:55:00,
2013-02-02 21:00:00,32.7,31.2,27.96,NW,315,1.1,1.1,94,0.00,,---,0.00,VWS V14.01,2013-02-03 02:00:00,
2013-02-02 21:05:00,32.7,31.2,27.96,NE,45,1.1,2.5,94,0.00,,---,0.00,VWS V14.01,2013-02-03 02:05:00,
2013-02-02 21:10:00,32.5,31.0,27.96,WSW,248,0.0,2.0,94,0.00,,---,0.00,VWS V14.01,2013-02-03 02:10:00,
2013-02-02 21:15:00,32.4,30.8,27.96,WSW,248,2.7,2.7,94,0.00,,---,0.00,VWS V14.01,2013-02-03 02:15:00,
2013-02-02 21:20:00,32.2,30.6,27.96,SW,225,0.0,1.6,94,0.00,,---,0.00,VWS V14.01,2013-02-03 02:20:00,
2013-02-02 21:25:00,32.2,30.6,27.96,SW,225,0.0,1.1,94,0.00,,---,0.00,VWS V14.01,2013-02-03 02:25:00,
2013-02-02 21:30:00,32.2,30.6,27.96,WNW,292,0.0,2.7,94,0.00,,---,0.00,VWS V14.01,2013-02-03 02:30:00,
2013-02-02 21:36:00,32.2,30.6,27.93,SE,135,2.0,2.0,94,0.00,,---,0.00,VWS V14.01,2013-02-03 02:36:00,
2013-02-02 21:41:00,32.2,30.6,27.93,SSW,202,1.3,2.9,94,0.00,,---,0.00,VWS V14.01,2013-02-03 02:41:00,
2013-02-02 21:46:00,32.2,30.6,27.93,SW,225,2.0,2.0,94,0.00,,---,0.00,VWS V14.01,2013-02-03 02:46:00,
2013-02-02 21:51:00,32.2,30.6,27.96,East,90,2.0,2.0,94,0.00,,---,0.00,VWS V14.01,2013-02-03 02:51:00,
2013-02-02 21:56:00,32.2,30.6,27.96,NNE,22,0.0,2.7,94,0.00,,---,0.00,VWS V14.01,2013-02-03 02:56:00,
2013-02-02 22:01:00,32.2,30.6,27.96,SSW,202,0.0,4.0,94,0.00,,---,0.00,VWS V14.01,2013-02-03 03:01:00,
2013-02-02 22:06:00,32.2,30.6,27.96,NE,45,2.0,2.9,94,0.00,,---,0.00,VWS V14.01,2013-02-03 03:06:00,
2013-02-02 22:11:00,32.2,30.6,27.96,NNE,22,0.9,1.3,94,0.00,,---,0.00,VWS V14.01,2013-02-03 03:11:00,
2013-02-02 22:16:00,32.2,30.6,27.96,WSW,248,0.0,1.6,94,0.00,,---,0.00,VWS V14.01,2013-02-03 03:16:00,
2013-02-02 22:21:00,32.2,30.6,27.96,East,90,2.7,2.9,94,0.00,,---,0.00,VWS V14.01,2013-02-03 03:21:00,
2013-02-02 22:26:00,32.2,30.9,27.96,WNW,292,0.9,2.5,95,0.00,,---,0.00,VWS V14.01,2013-02-03 03:26:00,
2013-02-02 22:31:00,32.4,31.1,27.96,East,90,3.1,3.1,95,0.00,,---,0.00,VWS V14.01,2013-02-03 03:31:00,
2013-02-02 22:36:00,32.5,31.3,27.96,West,270,1.6,4.9,95,0.00,,---,0.00,VWS V14.01,2013-02-03 03:36:00,
2013-02-02 22:41:00,32.5,31.3,27.96,ESE,112,2.0,2.0,95,0.00,,---,0.00,VWS V14.01,2013-02-03 03:41:00,
2013-02-02 22:46:00,32.7,30.9,27.96,SE,135,1.6,1.6,93,0.00,,---,0.00,VWS V14.01,2013-02-03 03:46:00,
2013-02-02 22:51:00,32.7,30.9,27.93,SSW,202,2.9,2.9,93,0.00,,---,0.00,VWS V14.01,2013-02-03 03:51:00,
2013-02-02 22:56:00,32.7,30.7,27.93,ESE,112,2.9,2.9,92,0.00,,---,0.00,VWS V14.01,2013-02-03 03:56:00,
2013-02-02 23:01:00,32.7,30.4,27.93,SE,135,3.4,4.0,91,0.00,,---,0.00,VWS V14.01,2013-02-03 04:01:00,
2013-02-02 23:06:00,32.7,30.4,27.93,East,90,2.5,2.5,91,0.00,,---,0.00,VWS V14.01,2013-02-03 04:06:00,
2013-02-02 23:11:00,32.7,30.1,27.93,SW,225,1.6,1.6,90,0.00,,---,0.00,VWS V14.01,2013-02-03 04:11:00,
2013-02-02 23:16:00,32.5,29.9,27.96,NW,315,1.6,3.8,90,0.00,,---,0.00,VWS V14.01,2013-02-03 04:16:00,
2013-02-02 23:22:00,32.5,29.7,27.96,East,90,1.6,2.5,89,0.00,,---,0.00,VWS V14.01,2013-02-03 04:22:00,
2013-02-02 23:27:00,32.5,29.7,27.96,South,180,2.2,2.9,89,0.00,,---,0.00,VWS V14.01,2013-02-03 04:27:00,
2013-02-02 23:32:00,32.5,29.7,27.96,NE,45,2.5,3.8,89,0.00,,---,0.00,VWS V14.01,2013-02-03 04:32:00,
2013-02-02 23:37:00,32.5,29.4,27.96,SE,135,3.4,3.4,88,0.00,,---,0.00,VWS V14.01,2013-02-03 04:37:00,
2013-02-02 23:42:00,32.5,29.4,27.96,NE,45,1.3,3.4,88,0.00,,---,0.00,VWS V14.01,2013-02-03 04:42:00,
2013-02-02 23:47:00,32.4,28.9,27.96,NE,45,0.0,2.2,87,0.00,,---,0.00,VWS V14.01,2013-02-03 04:47:00,
2013-02-02 23:52:00,32.4,28.9,27.96,SW,225,1.3,3.1,87,0.00,,---,0.00,VWS V14.01,2013-02-03 04:52:00,
2013-02-02 23:57:00,32.4,28.9,27.96,SE,135,2.9,3.6,87,0.00,,---,0.00,VWS V14.01,2013-02-03 04:57:00,